createdAt,value
2023-05-24T00:00:24.566Z,1017.51
2023-05-24T00:01:24.537Z,1017.46
2023-05-24T00:02:24.644Z,1017.50
2023-05-24T00:03:24.606Z,1017.50
2023-05-24T00:04:24.598Z,1017.52
2023-05-24T00:05:24.514Z,1017.53
2023-05-24T00:06:24.485Z,1017.49
2023-05-24T00:07:24.488Z,1017.49
2023-05-24T00:08:24.459Z,1017.47
2023-05-24T00:09:24.437Z,1017.50
2023-05-24T00:10:24.448Z,1017.52
2023-05-24T00:11:24.416Z,1017.50
2023-05-24T00:12:24.406Z,1017.52
2023-05-24T00:13:24.393Z,1017.52
2023-05-24T00:14:24.436Z,1017.51
2023-05-24T00:15:24.406Z,1017.55
2023-05-24T00:16:24.374Z,1017.54
2023-05-24T00:17:24.367Z,1017.58
2023-05-24T00:18:24.328Z,1017.56
2023-05-24T00:19:24.321Z,1017.56
2023-05-24T00:20:24.387Z,1017.55
2023-05-24T00:21:24.313Z,1017.53
2023-05-24T00:22:24.283Z,1017.52
2023-05-24T00:23:24.288Z,1017.48
2023-05-24T00:24:24.271Z,1017.53
2023-05-24T00:25:24.266Z,1017.58
2023-05-24T00:26:24.238Z,1017.59
2023-05-24T00:27:24.254Z,1017.60
2023-05-24T00:28:24.252Z,1017.56
2023-05-24T00:29:24.226Z,1017.67
2023-05-24T00:30:24.229Z,1017.69
2023-05-24T00:31:24.241Z,1017.71
2023-05-24T00:32:24.201Z,1017.69
2023-05-24T00:33:24.193Z,1017.69
2023-05-24T00:34:24.158Z,1017.66
2023-05-24T00:35:24.178Z,1017.63
2023-05-24T00:36:24.132Z,1017.65
2023-05-24T00:37:24.131Z,1017.64
2023-05-24T00:38:24.107Z,1017.66
2023-05-24T00:39:24.111Z,1017.65
2023-05-24T00:40:24.127Z,1017.60
2023-05-24T00:41:24.086Z,1017.62
2023-05-24T00:42:24.056Z,1017.63
2023-05-24T00:43:24.080Z,1017.60
2023-05-24T00:44:24.097Z,1017.63
2023-05-24T00:45:24.044Z,1017.63
2023-05-24T00:46:24.085Z,1017.56
2023-05-24T00:47:24.055Z,1017.59
2023-05-24T00:48:23.989Z,1017.55
2023-05-24T00:49:24.057Z,1017.58
2023-05-24T00:50:23.990Z,1017.56
2023-05-24T00:51:23.991Z,1017.55
2023-05-24T00:52:23.943Z,1017.57
2023-05-24T00:53:23.952Z,1017.59
2023-05-24T00:54:23.998Z,1017.59
2023-05-24T00:55:23.944Z,1017.60
2023-05-24T00:56:23.907Z,1017.58
2023-05-24T00:57:23.900Z,1017.60
2023-05-24T00:58:23.890Z,1017.59
2023-05-24T00:59:23.894Z,1017.57
2023-05-24T01:00:23.874Z,1017.58
2023-05-24T01:01:23.871Z,1017.58
2023-05-24T01:02:23.974Z,1017.57
2023-05-24T01:03:23.917Z,1017.55
2023-05-24T01:04:23.839Z,1017.58
2023-05-24T01:05:23.827Z,1017.57
2023-05-24T01:06:23.790Z,1017.58
2023-05-24T01:07:23.795Z,1017.56
2023-05-24T01:08:23.765Z,1017.59
2023-05-24T01:09:23.756Z,1017.60
2023-05-24T01:10:23.781Z,1017.61
2023-05-24T01:11:23.748Z,1017.61
2023-05-24T01:12:23.720Z,1017.60
2023-05-24T01:13:23.714Z,1017.56
2023-05-24T01:14:23.758Z,1017.57
2023-05-24T01:15:23.704Z,1017.56
2023-05-24T01:16:23.716Z,1017.57
2023-05-24T01:17:23.684Z,1017.55
2023-05-24T01:18:23.676Z,1017.52
2023-05-24T01:19:23.669Z,1017.52
2023-05-24T01:20:23.682Z,1017.50
2023-05-24T01:21:23.636Z,1017.48
2023-05-24T01:22:23.605Z,1017.51
2023-05-24T01:23:23.601Z,1017.51
2023-05-24T01:24:23.612Z,1017.49
2023-05-24T01:25:23.582Z,1017.51
2023-05-24T01:26:23.560Z,1017.53
2023-05-24T01:27:23.568Z,1017.51
2023-05-24T01:28:23.538Z,1017.51
2023-05-24T01:29:23.552Z,1017.57
2023-05-24T01:30:23.513Z,1017.54
2023-05-24T01:31:23.545Z,1017.55
2023-05-24T01:32:23.538Z,1017.55
2023-05-24T01:33:23.500Z,1017.56
2023-05-24T01:34:23.515Z,1017.55
2023-05-24T01:35:23.479Z,1017.50
2023-05-24T01:36:23.490Z,1017.49
2023-05-24T01:37:23.456Z,1017.48
2023-05-24T01:38:23.428Z,1017.50
2023-05-24T01:39:23.420Z,1017.49
2023-05-24T01:40:23.401Z,1017.47
2023-05-24T01:41:23.409Z,1017.44
2023-05-24T01:42:23.391Z,1017.44
2023-05-24T01:43:23.398Z,1017.43
2023-05-24T01:44:23.396Z,1017.44
2023-05-24T01:45:23.359Z,1017.42
2023-05-24T01:46:23.367Z,1017.39
2023-05-24T01:47:23.411Z,1017.44
2023-05-24T01:48:23.312Z,1017.43
2023-05-24T01:49:23.321Z,1017.42
2023-05-24T01:50:25.667Z,1017.44
2023-05-24T01:51:23.290Z,1017.46
2023-05-24T01:52:23.300Z,1017.45
2023-05-24T01:53:23.301Z,1017.47
2023-05-24T01:54:23.282Z,1017.45
2023-05-24T01:55:23.242Z,1017.45
2023-05-24T01:56:23.222Z,1017.42
2023-05-24T01:57:23.203Z,1017.43
2023-05-24T01:58:23.203Z,1017.39
2023-05-24T01:59:23.179Z,1017.36
2023-05-24T02:00:23.214Z,1017.38
2023-05-24T02:01:23.220Z,1017.37
2023-05-24T02:02:23.227Z,1017.35
2023-05-24T02:03:23.157Z,1017.41
2023-05-24T02:04:23.129Z,1017.46
2023-05-24T02:05:23.146Z,1017.44
2023-05-24T02:06:23.142Z,1017.43
2023-05-24T02:07:23.096Z,1017.43
2023-05-24T02:08:23.085Z,1017.40
2023-05-24T02:09:23.085Z,1017.42
2023-05-24T02:10:23.106Z,1017.38
2023-05-24T02:11:23.059Z,1017.36
2023-05-24T02:12:23.035Z,1017.37
2023-05-24T02:13:23.027Z,1017.40
2023-05-24T02:14:23.040Z,1017.39
2023-05-24T02:15:23.018Z,1017.40
2023-05-24T02:16:23.042Z,1017.39
2023-05-24T02:17:23.037Z,1017.41
2023-05-24T02:18:22.990Z,1017.41
2023-05-24T02:19:22.956Z,1017.36
2023-05-24T02:20:23.084Z,1017.38
2023-05-24T02:21:22.952Z,1017.32
2023-05-24T02:22:22.952Z,1017.35
2023-05-24T02:23:22.917Z,1017.37
2023-05-24T02:24:22.920Z,1017.34
2023-05-24T02:25:22.901Z,1017.35
2023-05-24T02:26:22.916Z,1017.33
2023-05-24T02:27:22.866Z,1017.30
2023-05-24T02:28:22.877Z,1017.34
2023-05-24T02:29:22.857Z,1017.36
2023-05-24T02:30:22.851Z,1017.37
2023-05-24T02:31:22.986Z,1017.34
2023-05-24T02:32:22.814Z,1017.34
2023-05-24T02:33:22.799Z,1017.38
2023-05-24T02:34:22.809Z,1017.37
2023-05-24T02:35:22.787Z,1017.38
2023-05-24T02:36:22.781Z,1017.36
2023-05-24T02:37:22.771Z,1017.39
2023-05-24T02:38:22.781Z,1017.38
2023-05-24T02:39:22.749Z,1017.40
2023-05-24T02:40:22.740Z,1017.39
2023-05-24T02:41:22.773Z,1017.38
2023-05-24T02:42:22.717Z,1017.38
2023-05-24T02:43:22.712Z,1017.40
2023-05-24T02:44:22.676Z,1017.40
2023-05-24T02:45:22.675Z,1017.34
2023-05-24T02:46:22.690Z,1017.40
2023-05-24T02:47:22.667Z,1017.37
2023-05-24T02:48:22.651Z,1017.36
2023-05-24T02:49:22.626Z,1017.30
2023-05-24T02:50:22.628Z,1017.30
2023-05-24T02:51:22.604Z,1017.33
2023-05-24T02:52:22.601Z,1017.31
2023-05-24T02:53:22.580Z,1017.28
2023-05-24T02:54:22.581Z,1017.28
2023-05-24T02:55:22.549Z,1017.26
2023-05-24T02:56:22.550Z,1017.28
2023-05-24T02:57:22.535Z,1017.29
2023-05-24T02:58:22.512Z,1017.26
2023-05-24T02:59:22.516Z,1017.27
2023-05-24T03:00:22.500Z,1017.29
2023-05-24T03:01:22.510Z,1017.29
2023-05-24T03:02:22.550Z,1017.31
2023-05-24T03:03:22.679Z,1017.29
2023-05-24T03:04:22.463Z,1017.26
2023-05-24T03:05:22.425Z,1017.30
2023-05-24T03:06:22.428Z,1017.31
2023-05-24T03:07:22.416Z,1017.31
2023-05-24T03:08:22.411Z,1017.28
2023-05-24T03:09:22.388Z,1017.29
2023-05-24T03:10:22.421Z,1017.28
2023-05-24T03:11:22.568Z,1017.26
2023-05-24T03:12:22.366Z,1017.24
2023-05-24T03:13:22.352Z,1017.23
2023-05-24T03:14:22.346Z,1017.19
2023-05-24T03:15:22.342Z,1017.22
2023-05-24T03:16:22.398Z,1017.23
2023-05-24T03:17:22.303Z,1017.20
2023-05-24T03:18:22.281Z,1017.18
2023-05-24T03:19:22.267Z,1017.24
2023-05-24T03:20:22.334Z,1017.26
2023-05-24T03:21:22.299Z,1017.23
2023-05-24T03:22:22.254Z,1017.22
2023-05-24T03:23:22.257Z,1017.23
2023-05-24T03:24:22.258Z,1017.26
2023-05-24T03:25:22.226Z,1017.26
2023-05-24T03:26:22.251Z,1017.24
2023-05-24T03:27:22.196Z,1017.25
2023-05-24T03:28:22.228Z,1017.28
2023-05-24T03:29:22.158Z,1017.26
2023-05-24T03:30:22.165Z,1017.25
2023-05-24T03:31:22.200Z,1017.24
2023-05-24T03:32:22.185Z,1017.29
2023-05-24T03:33:22.127Z,1017.24
2023-05-24T03:34:22.120Z,1017.28
2023-05-24T03:35:22.089Z,1017.26
2023-05-24T03:36:22.094Z,1017.32
2023-05-24T03:37:22.109Z,1017.31
2023-05-24T03:38:22.060Z,1017.31
2023-05-24T03:39:22.041Z,1017.30
2023-05-24T03:40:22.060Z,1017.27
2023-05-24T03:41:22.026Z,1017.25
2023-05-24T03:42:22.062Z,1017.25
2023-05-24T03:43:22.012Z,1017.28
2023-05-24T03:44:21.995Z,1017.30
2023-05-24T03:45:34.476Z,1017.26
2023-05-24T03:46:23.051Z,1017.26
2023-05-24T03:47:22.000Z,1017.29
2023-05-24T03:48:22.509Z,1017.30
2023-05-24T03:49:21.932Z,1017.33
2023-05-24T03:50:21.923Z,1017.30
2023-05-24T03:51:21.928Z,1017.31
2023-05-24T03:52:21.901Z,1017.28
2023-05-24T03:53:23.131Z,1017.26
2023-05-24T03:54:21.891Z,1017.26
2023-05-24T03:55:21.875Z,1017.29
2023-05-24T03:56:21.886Z,1017.31
2023-05-24T03:57:21.838Z,1017.35
2023-05-24T03:58:21.857Z,1017.31
2023-05-24T03:59:21.824Z,1017.29
2023-05-24T04:00:21.820Z,1017.31
2023-05-24T04:01:32.607Z,1017.30
2023-05-24T04:02:22.871Z,1017.31
2023-05-24T04:03:21.855Z,1017.31
2023-05-24T04:04:21.816Z,1017.27
2023-05-24T04:05:21.742Z,1017.31
2023-05-24T04:06:21.750Z,1017.31
2023-05-24T04:07:21.717Z,1017.36
2023-05-24T04:08:21.727Z,1017.35
2023-05-24T04:09:21.712Z,1017.37
2023-05-24T04:10:21.727Z,1017.40
2023-05-24T04:11:21.720Z,1017.40
2023-05-24T04:12:21.685Z,1017.39
2023-05-24T04:13:21.647Z,1017.40
2023-05-24T04:14:21.682Z,1017.39
2023-05-24T04:15:21.630Z,1017.43
2023-05-24T04:16:21.676Z,1017.47
2023-05-24T04:17:21.737Z,1017.53
2023-05-24T04:18:21.778Z,1017.52
2023-05-24T04:19:21.583Z,1017.55
2023-05-24T04:20:21.618Z,1017.56
2023-05-24T04:21:21.588Z,1017.58
2023-05-24T04:22:23.177Z,1017.59
2023-05-24T04:23:21.567Z,1017.58
2023-05-24T04:24:21.528Z,1017.60
2023-05-24T04:25:21.525Z,1017.52
2023-05-24T04:26:21.520Z,1017.54
2023-05-24T04:27:21.490Z,1017.54
2023-05-24T04:28:21.495Z,1017.57
2023-05-24T04:29:21.490Z,1017.58
2023-05-24T04:30:21.654Z,1017.64
2023-05-24T04:31:21.498Z,1017.61
2023-05-24T04:32:21.464Z,1017.63
2023-05-24T04:33:21.437Z,1017.63
2023-05-24T04:34:21.445Z,1017.61
2023-05-24T04:35:21.426Z,1017.64
2023-05-24T04:36:21.444Z,1017.57
2023-05-24T04:37:21.391Z,1017.59
2023-05-24T04:38:22.062Z,1017.63
2023-05-24T04:39:21.370Z,1017.67
2023-05-24T04:40:21.352Z,1017.63
2023-05-24T04:41:21.334Z,1017.66
2023-05-24T04:42:21.357Z,1017.67
2023-05-24T04:43:21.308Z,1017.64
2023-05-24T04:44:21.306Z,1017.67
2023-05-24T04:45:21.296Z,1017.70
2023-05-24T04:46:21.334Z,1017.72
2023-05-24T04:47:21.321Z,1017.78
2023-05-24T04:48:21.273Z,1017.78
2023-05-24T04:49:21.248Z,1017.78
2023-05-24T04:50:21.250Z,1017.78
2023-05-24T04:51:21.240Z,1017.79
2023-05-24T04:52:21.227Z,1017.81
2023-05-24T04:53:21.393Z,1017.82
2023-05-24T04:54:21.214Z,1017.80
2023-05-24T04:55:21.174Z,1017.83
2023-05-24T04:56:21.180Z,1017.87
2023-05-24T04:57:21.195Z,1017.89
2023-05-24T04:58:21.158Z,1017.90
2023-05-24T04:59:21.128Z,1017.93
2023-05-24T05:00:21.136Z,1017.98
2023-05-24T05:01:21.149Z,1017.97
2023-05-24T05:02:21.138Z,1017.99
2023-05-24T05:03:21.197Z,1018.01
2023-05-24T05:04:21.093Z,1017.98
2023-05-24T05:05:21.057Z,1017.96
2023-05-24T05:06:21.067Z,1017.96
2023-05-24T05:07:21.047Z,1017.98
2023-05-24T05:08:21.044Z,1018.02
2023-05-24T05:09:21.014Z,1018.01
2023-05-24T05:10:23.666Z,1018.02
2023-05-24T05:11:21.008Z,1018.01
2023-05-24T05:12:20.998Z,1018.04
2023-05-24T05:13:20.971Z,1018.00
2023-05-24T05:14:20.965Z,1018.01
2023-05-24T05:15:20.943Z,1018.01
2023-05-24T05:16:20.969Z,1018.04
2023-05-24T05:17:20.933Z,1018.05
2023-05-24T05:18:20.933Z,1018.02
2023-05-24T05:19:20.922Z,1018.05
2023-05-24T05:20:20.960Z,1018.06
2023-05-24T05:21:20.907Z,1018.05
2023-05-24T05:22:20.870Z,1018.03
2023-05-24T05:23:20.870Z,1018.08
2023-05-24T05:24:20.857Z,1018.10
2023-05-24T05:25:20.852Z,1018.10
2023-05-24T05:26:20.859Z,1018.08
2023-05-24T05:27:20.818Z,1018.10
2023-05-24T05:28:20.802Z,1018.11
2023-05-24T05:29:22.199Z,1018.11
2023-05-24T05:30:20.793Z,1018.13
2023-05-24T05:31:20.760Z,1018.16
2023-05-24T05:32:20.883Z,1018.13
2023-05-24T05:33:20.761Z,1018.11
2023-05-24T05:34:20.851Z,1018.12
2023-05-24T05:35:20.729Z,1018.17
2023-05-24T05:36:20.730Z,1018.13
2023-05-24T05:37:20.708Z,1018.14
2023-05-24T05:38:20.707Z,1018.07
2023-05-24T05:39:20.682Z,1018.06
2023-05-24T05:40:20.664Z,1018.12
2023-05-24T05:41:20.649Z,1018.11
2023-05-24T05:42:20.652Z,1018.11
2023-05-24T05:43:20.639Z,1018.12
2023-05-24T05:44:20.618Z,1018.09
2023-05-24T05:45:20.602Z,1018.09
2023-05-24T05:46:20.622Z,1018.06
2023-05-24T05:47:20.611Z,1018.09
2023-05-24T05:48:20.622Z,1018.09
2023-05-24T05:49:20.583Z,1018.09
2023-05-24T05:50:20.591Z,1018.04
2023-05-24T05:51:20.547Z,1018.02
2023-05-24T05:52:20.716Z,1018.02
2023-05-24T05:53:20.537Z,1017.94
2023-05-24T05:54:20.506Z,1017.99
2023-05-24T05:55:20.489Z,1018.02
2023-05-24T05:56:20.508Z,1017.95
2023-05-24T05:57:20.494Z,1017.96
2023-05-24T05:58:20.463Z,1017.92
2023-05-24T05:59:20.467Z,1017.95
2023-05-24T06:00:20.453Z,1017.96
2023-05-24T06:01:20.451Z,1017.99
2023-05-24T06:02:20.483Z,1017.99
2023-05-24T06:03:20.613Z,1017.97
2023-05-24T06:04:20.488Z,1018.00
2023-05-24T06:05:20.378Z,1017.98
2023-05-24T06:06:20.388Z,1018.02
2023-05-24T06:07:20.374Z,1018.04
2023-05-24T06:08:20.346Z,1018.08
2023-05-24T06:09:20.342Z,1018.08
2023-05-24T06:10:20.320Z,1018.06
2023-05-24T06:11:20.312Z,1018.06
2023-05-24T06:12:20.320Z,1018.08
2023-05-24T06:13:20.283Z,1018.11
2023-05-24T06:14:20.283Z,1018.11
2023-05-24T06:15:20.263Z,1017.99
2023-05-24T06:16:20.457Z,1017.96
2023-05-24T06:17:20.273Z,1017.98
2023-05-24T06:18:20.227Z,1017.95
2023-05-24T06:19:20.233Z,1017.92
2023-05-24T06:20:20.308Z,1017.92
2023-05-24T06:21:20.205Z,1017.92
2023-05-24T06:22:20.226Z,1017.94
2023-05-24T06:23:20.189Z,1017.87
2023-05-24T06:24:20.172Z,1017.85
2023-05-24T06:25:20.149Z,1017.91
2023-05-24T06:26:20.147Z,1017.87
2023-05-24T06:27:20.152Z,1017.85
2023-05-24T06:28:20.115Z,1017.81
2023-05-24T06:29:20.120Z,1017.82
2023-05-24T06:30:20.136Z,1017.78
2023-05-24T06:31:20.108Z,1017.81
2023-05-24T06:32:20.169Z,1017.80
2023-05-24T06:33:20.071Z,1017.82
2023-05-24T06:34:20.063Z,1017.76
2023-05-24T06:35:20.056Z,1017.78
2023-05-24T06:36:20.034Z,1017.78
2023-05-24T06:37:20.017Z,1017.75
2023-05-24T06:38:20.058Z,1017.76
2023-05-24T06:39:20.017Z,1017.75
2023-05-24T06:40:20.014Z,1017.73
2023-05-24T06:41:19.991Z,1017.77
2023-05-24T06:42:19.972Z,1017.79
2023-05-24T06:43:19.974Z,1017.82
2023-05-24T06:44:19.934Z,1017.80
2023-05-24T06:45:19.938Z,1017.81
2023-05-24T06:46:19.952Z,1017.86
2023-05-24T06:47:19.942Z,1017.86
2023-05-24T06:48:20.079Z,1017.83
2023-05-24T06:49:19.885Z,1017.92
2023-05-24T06:50:19.887Z,1017.91
2023-05-24T06:51:19.872Z,1017.91
2023-05-24T06:52:19.857Z,1017.96
2023-05-24T06:53:19.875Z,1017.94
2023-05-24T06:54:19.895Z,1017.99
2023-05-24T06:55:19.814Z,1017.94
2023-05-24T06:56:19.812Z,1018.02
2023-05-24T06:57:19.792Z,1018.02
2023-05-24T06:58:19.790Z,1017.94
2023-05-24T06:59:19.770Z,1017.97
2023-05-24T07:00:19.768Z,1017.98
2023-05-24T07:01:19.774Z,1017.88
2023-05-24T07:02:19.756Z,1017.92
2023-05-24T07:03:19.720Z,1017.91
2023-05-24T07:04:19.746Z,1017.95
2023-05-24T07:05:19.694Z,1017.91
2023-05-24T07:06:19.681Z,1017.91
2023-05-24T07:07:19.706Z,1017.96
2023-05-24T07:08:19.684Z,1017.98
2023-05-24T07:09:19.649Z,1017.95
2023-05-24T07:10:19.681Z,1017.98
2023-05-24T07:11:19.676Z,1018.07
2023-05-24T07:12:19.652Z,1018.09
2023-05-24T07:13:19.611Z,1018.10
2023-05-24T07:14:19.586Z,1018.06
2023-05-24T07:15:19.585Z,1018.05
2023-05-24T07:16:19.597Z,1018.09
2023-05-24T07:17:19.604Z,1018.23
2023-05-24T07:18:19.554Z,1018.03
2023-05-24T07:19:19.535Z,1018.06
2023-05-24T07:20:19.626Z,1018.09
2023-05-24T07:21:19.525Z,1018.01
2023-05-24T07:22:19.527Z,1018.29
2023-05-24T07:23:19.496Z,1018.15
2023-05-24T07:24:19.488Z,1018.07
2023-05-24T07:25:19.478Z,1018.24
2023-05-24T07:26:19.554Z,1018.23
2023-05-24T07:27:19.460Z,1018.05
2023-05-24T07:28:19.441Z,1018.10
2023-05-24T07:29:19.421Z,1018.09
2023-05-24T07:30:31.010Z,1018.08
2023-05-24T07:31:20.407Z,1018.37
2023-05-24T07:32:19.509Z,1018.15
2023-05-24T07:33:19.471Z,1018.14
2023-05-24T07:34:19.397Z,1018.29
2023-05-24T07:35:19.353Z,1018.22
2023-05-24T07:36:19.348Z,1018.14
2023-05-24T07:37:19.333Z,1018.17
2023-05-24T07:38:19.336Z,1018.22
2023-05-24T07:39:19.323Z,1018.20
2023-05-24T07:40:19.320Z,1018.20
2023-05-24T07:41:19.299Z,1018.40
2023-05-24T07:42:19.324Z,1018.34
2023-05-24T07:43:19.278Z,1018.18
2023-05-24T07:44:19.252Z,1018.33
2023-05-24T07:45:19.247Z,1018.18
2023-05-24T07:46:19.295Z,1018.49
2023-05-24T07:47:19.236Z,1018.52
2023-05-24T07:48:19.224Z,1018.49
2023-05-24T07:49:19.201Z,1018.42
2023-05-24T07:50:19.194Z,1018.49
2023-05-24T07:51:19.171Z,1018.48
2023-05-24T07:52:19.173Z,1018.43
2023-05-24T07:53:19.172Z,1018.45
2023-05-24T07:54:19.159Z,1018.45
2023-05-24T07:55:19.132Z,1018.49
2023-05-24T07:56:19.136Z,1018.43
2023-05-24T07:57:19.144Z,1018.19
2023-05-24T07:58:19.126Z,1018.43
2023-05-24T07:59:19.139Z,1018.09
2023-05-24T08:00:19.081Z,1018.10
2023-05-24T08:01:19.063Z,1018.10
2023-05-24T08:02:19.213Z,1018.11
2023-05-24T08:03:19.144Z,1018.15
2023-05-24T08:04:19.041Z,1018.06
2023-05-24T08:05:19.035Z,1018.03
2023-05-24T08:06:19.154Z,1018.12
2023-05-24T08:07:19.084Z,1018.02
2023-05-24T08:08:18.992Z,1018.00
2023-05-24T08:09:18.984Z,1018.30
2023-05-24T08:10:18.958Z,1018.31
2023-05-24T08:11:18.950Z,1018.21
2023-05-24T08:12:18.969Z,1018.01
2023-05-24T08:13:18.987Z,1018.32
2023-05-24T08:14:18.983Z,1018.29
2023-05-24T08:15:18.910Z,1018.31
2023-05-24T08:16:18.922Z,1018.36
2023-05-24T08:17:18.905Z,1018.33
2023-05-24T08:18:18.887Z,1018.34
2023-05-24T08:19:18.874Z,1018.34
2023-05-24T08:20:18.909Z,1018.28
2023-05-24T08:21:18.862Z,1018.36
2023-05-24T08:22:18.846Z,1018.38
2023-05-24T08:23:18.815Z,1018.38
2023-05-24T08:24:18.799Z,1018.36
2023-05-24T08:25:18.792Z,1018.32
2023-05-24T08:26:18.788Z,1018.42
2023-05-24T08:27:18.797Z,1018.32
2023-05-24T08:28:18.800Z,1018.44
2023-05-24T08:29:18.751Z,1018.39
2023-05-24T08:30:18.762Z,1018.37
2023-05-24T08:31:18.744Z,1018.40
2023-05-24T08:32:18.749Z,1018.46
2023-05-24T08:33:18.827Z,1018.51
2023-05-24T08:34:18.705Z,1018.49
2023-05-24T08:35:20.885Z,1018.57
2023-05-24T08:36:18.671Z,1018.46
2023-05-24T08:37:18.694Z,1018.35
2023-05-24T08:38:18.654Z,1018.60
2023-05-24T08:39:18.654Z,1018.55
2023-05-24T08:40:18.628Z,1018.33
2023-05-24T08:41:18.626Z,1018.19
2023-05-24T08:42:18.613Z,1018.17
2023-05-24T08:43:18.592Z,1018.11
2023-05-24T08:44:18.589Z,1018.16
2023-05-24T08:45:18.576Z,1018.17
2023-05-24T08:46:18.684Z,1018.07
2023-05-24T08:47:18.591Z,1018.15
2023-05-24T08:48:18.642Z,1018.16
2023-05-24T08:49:18.543Z,1018.15
2023-05-24T08:50:18.511Z,1018.17
2023-05-24T08:51:18.521Z,1018.08
2023-05-24T08:52:18.539Z,1018.10
2023-05-24T08:53:18.487Z,1018.13
2023-05-24T08:54:18.478Z,1018.13
2023-05-24T08:55:18.469Z,1018.15
2023-05-24T08:56:18.469Z,1018.21
2023-05-24T08:57:18.475Z,1018.17
2023-05-24T08:58:18.440Z,1018.40
2023-05-24T08:59:18.421Z,1018.45
2023-05-24T09:00:18.520Z,1018.18
2023-05-24T09:01:18.453Z,1018.29
2023-05-24T09:02:18.548Z,1018.02
2023-05-24T09:03:18.470Z,1017.91
2023-05-24T09:04:18.496Z,1018.02
2023-05-24T09:05:18.365Z,1018.20
2023-05-24T09:06:18.357Z,1018.08
2023-05-24T09:07:18.347Z,1017.90
2023-05-24T09:08:18.400Z,1018.30
2023-05-24T09:09:18.313Z,1018.34
2023-05-24T09:10:18.352Z,1018.09
2023-05-24T09:11:18.288Z,1018.01
2023-05-24T09:12:28.380Z,1018.21
2023-05-24T09:13:19.265Z,1018.01
2023-05-24T09:14:18.271Z,1018.07
2023-05-24T09:15:18.244Z,1017.98
2023-05-24T09:16:18.269Z,1017.96
2023-05-24T09:17:18.236Z,1018.02
2023-05-24T09:18:18.316Z,1017.95
2023-05-24T09:19:18.217Z,1017.92
2023-05-24T09:20:18.235Z,1017.99
2023-05-24T09:21:18.196Z,1017.96
2023-05-24T09:22:18.210Z,1017.99
2023-05-24T09:23:18.161Z,1018.00
2023-05-24T09:24:18.137Z,1018.00
2023-05-24T09:25:18.126Z,1017.98
2023-05-24T09:26:18.115Z,1017.98
2023-05-24T09:27:18.177Z,1018.01
2023-05-24T09:28:18.107Z,1018.00
2023-05-24T09:29:18.081Z,1017.98
2023-05-24T09:30:18.157Z,1018.04
2023-05-24T09:31:18.096Z,1018.00
2023-05-24T09:32:18.093Z,1018.04
2023-05-24T09:33:18.067Z,1018.02
2023-05-24T09:34:18.088Z,1018.01
2023-05-24T09:35:18.025Z,1018.06
2023-05-24T09:36:18.014Z,1018.06
2023-05-24T09:37:18.007Z,1018.08
2023-05-24T09:38:18.013Z,1018.03
2023-05-24T09:39:17.983Z,1018.06
2023-05-24T09:40:17.950Z,1018.00
2023-05-24T09:41:17.965Z,1018.00
2023-05-24T09:42:18.020Z,1018.03
2023-05-24T09:43:17.922Z,1018.05
2023-05-24T09:44:17.908Z,1018.03
2023-05-24T09:45:17.902Z,1017.98
2023-05-24T09:46:17.950Z,1017.98
2023-05-24T09:47:17.981Z,1018.23
2023-05-24T09:48:17.872Z,1018.20
2023-05-24T09:49:17.870Z,1018.23
2023-05-24T09:50:18.043Z,1018.16
2023-05-24T09:51:17.909Z,1018.14
2023-05-24T09:52:17.839Z,1018.04
2023-05-24T09:53:17.832Z,1018.09
2023-05-24T09:54:17.806Z,1017.85
2023-05-24T09:55:17.836Z,1017.85
2023-05-24T09:56:17.803Z,1017.82
2023-05-24T09:57:17.795Z,1017.82
2023-05-24T09:58:17.765Z,1017.81
2023-05-24T09:59:17.781Z,1017.78
2023-05-24T10:00:17.921Z,1017.84
2023-05-24T10:01:17.793Z,1017.84
2023-05-24T10:02:17.751Z,1017.79
2023-05-24T10:03:17.812Z,1017.78
2023-05-24T10:04:17.839Z,1017.78
2023-05-24T10:05:17.700Z,1017.77
2023-05-24T10:06:17.712Z,1017.76
2023-05-24T10:07:17.669Z,1017.74
2023-05-24T10:08:17.642Z,1017.71
2023-05-24T10:09:17.636Z,1017.72
2023-05-24T10:10:17.632Z,1017.73
2023-05-24T10:11:17.631Z,1017.82
2023-05-24T10:12:17.638Z,1017.81
2023-05-24T10:13:17.593Z,1017.75
2023-05-24T10:14:17.592Z,1017.74
2023-05-24T10:15:17.581Z,1017.83
2023-05-24T10:16:17.609Z,1017.89
2023-05-24T10:17:17.585Z,1017.78
2023-05-24T10:18:17.579Z,1017.72
2023-05-24T10:19:17.527Z,1017.72
2023-05-24T10:20:17.570Z,1017.69
2023-05-24T10:21:17.526Z,1017.71
2023-05-24T10:22:17.578Z,1017.74
2023-05-24T10:23:17.495Z,1017.73
2023-05-24T10:24:17.516Z,1017.67
2023-05-24T10:25:17.455Z,1017.72
2023-05-24T10:26:17.450Z,1017.79
2023-05-24T10:27:17.461Z,1017.78
2023-05-24T10:28:17.448Z,1017.75
2023-05-24T10:29:17.411Z,1017.72
2023-05-24T10:30:17.415Z,1017.75
2023-05-24T10:31:17.460Z,1017.76
2023-05-24T10:32:17.394Z,1017.79
2023-05-24T10:33:17.402Z,1017.91
2023-05-24T10:34:17.352Z,1017.88
2023-05-24T10:35:17.341Z,1017.79
2023-05-24T10:36:17.341Z,1017.77
2023-05-24T10:37:17.333Z,1017.83
2023-05-24T10:38:17.337Z,1017.73
2023-05-24T10:39:17.314Z,1017.80
2023-05-24T10:40:17.291Z,1017.88
2023-05-24T10:41:17.322Z,1017.78
2023-05-24T10:42:17.276Z,1017.73
2023-05-24T10:43:17.275Z,1017.76
2023-05-24T10:44:17.253Z,1017.73
2023-05-24T10:45:17.240Z,1017.74
2023-05-24T10:46:17.242Z,1017.78
2023-05-24T10:47:17.243Z,1017.74
2023-05-24T10:48:17.329Z,1017.78
2023-05-24T10:49:17.201Z,1017.82
2023-05-24T10:50:17.176Z,1017.86
2023-05-24T10:51:17.171Z,1017.87
2023-05-24T10:52:17.191Z,1017.81
2023-05-24T10:53:17.153Z,1017.79
2023-05-24T10:54:17.159Z,1017.77
2023-05-24T10:55:17.142Z,1017.77
2023-05-24T10:56:17.107Z,1017.78
2023-05-24T10:57:17.120Z,1017.78
2023-05-24T10:58:17.098Z,1017.75
2023-05-24T10:59:17.078Z,1017.72
2023-05-24T11:00:26.712Z,1017.72
2023-05-24T11:01:18.147Z,1017.75
2023-05-24T11:02:17.099Z,1017.74
2023-05-24T11:03:17.109Z,1017.73
2023-05-24T11:04:17.114Z,1017.73
2023-05-24T11:05:17.075Z,1017.76
2023-05-24T11:06:16.998Z,1017.74
2023-05-24T11:07:17.002Z,1017.68
2023-05-24T11:08:17.088Z,1017.64
2023-05-24T11:09:16.985Z,1017.69
2023-05-24T11:10:16.971Z,1017.72
2023-05-24T11:11:25.744Z,1017.72
2023-05-24T11:12:18.032Z,1017.66
2023-05-24T11:13:16.939Z,1017.66
2023-05-24T11:14:16.916Z,1017.67
2023-05-24T11:15:16.907Z,1017.69
2023-05-24T11:16:16.962Z,1017.66
2023-05-24T11:17:16.878Z,1017.64
2023-05-24T11:18:16.925Z,1017.57
2023-05-24T11:19:16.843Z,1017.58
2023-05-24T11:20:16.904Z,1017.56
2023-05-24T11:21:16.853Z,1017.56
2023-05-24T11:22:16.868Z,1017.56
2023-05-24T11:23:16.855Z,1017.63
2023-05-24T11:24:16.800Z,1017.63
2023-05-24T11:25:16.814Z,1017.58
2023-05-24T11:26:16.822Z,1017.56
2023-05-24T11:27:16.764Z,1017.59
2023-05-24T11:28:16.805Z,1017.59
2023-05-24T11:29:16.749Z,1017.60
2023-05-24T11:30:16.733Z,1017.57
2023-05-24T11:31:16.785Z,1017.59
2023-05-24T11:32:16.795Z,1017.57
2023-05-24T11:33:16.771Z,1017.50
2023-05-24T11:34:16.695Z,1017.46
2023-05-24T11:35:16.668Z,1017.47
2023-05-24T11:36:16.659Z,1017.50
2023-05-24T11:37:17.481Z,1017.47
2023-05-24T11:38:16.673Z,1017.48
2023-05-24T11:39:16.812Z,1017.46
2023-05-24T11:40:16.621Z,1017.41
2023-05-24T11:41:16.595Z,1017.45
2023-05-24T11:42:16.607Z,1017.43
2023-05-24T11:43:16.868Z,1017.44
2023-05-24T11:44:16.602Z,1017.39
2023-05-24T11:45:16.545Z,1017.37
2023-05-24T11:46:16.577Z,1017.42
2023-05-24T11:47:16.556Z,1017.40
2023-05-24T11:48:16.685Z,1017.41
2023-05-24T11:49:16.545Z,1017.47
2023-05-24T11:50:16.531Z,1017.47
2023-05-24T11:51:16.495Z,1017.45
2023-05-24T11:52:16.480Z,1017.48
2023-05-24T11:53:16.477Z,1017.46
2023-05-24T11:54:16.451Z,1017.44
2023-05-24T11:55:16.851Z,1017.46
2023-05-24T11:56:16.454Z,1017.45
2023-05-24T11:57:16.456Z,1017.43
2023-05-24T11:58:16.454Z,1017.48
2023-05-24T11:59:16.434Z,1017.44
2023-05-24T12:00:16.384Z,1017.46
2023-05-24T12:01:16.380Z,1017.48
2023-05-24T12:02:16.424Z,1017.43
2023-05-24T12:03:16.449Z,1017.42
2023-05-24T12:04:16.393Z,1017.43
2023-05-24T12:05:16.320Z,1017.38